sensor_id;sensor_type;location;lat;lon;timestamp;P1;durP1;ratioP1;P2;durP2;ratioP2
19217;SDS011;9743;52.550;13.264;2022-08-24T00:01:08;0.30;;;0.30;;
19217;SDS011;9743;52.550;13.264;2022-08-24T00:03:36;1.65;;;0.63;;
19217;SDS011;9743;52.550;13.264;2022-08-24T00:06:05;0.45;;;0.30;;
19217;SDS011;9743;52.550;13.264;2022-08-24T00:08:34;1.20;;;0.70;;
19217;SDS011;9743;52.550;13.264;2022-08-24T00:11:01;0.38;;;0.38;;
19217;SDS011;9743;52.550;13.264;2022-08-24T00:13:29;1.20;;;0.35;;
19217;SDS011;9743;52.550;13.264;2022-08-24T00:15:57;0.30;;;0.30;;
19217;SDS011;9743;52.550;13.264;2022-08-24T00:18:24;0.68;;;0.47;;
19217;SDS011;9743;52.550;13.264;2022-08-24T00:20:50;0.13;;;0.13;;
19217;SDS011;9743;52.550;13.264;2022-08-24T00:23:17;0.20;;;0.20;;
19217;SDS011;9743;52.550;13.264;2022-08-24T00:25:44;0.47;;;0.40;;
19217;SDS011;9743;52.550;13.264;2022-08-24T00:28:11;0.47;;;0.38;;
19217;SDS011;9743;52.550;13.264;2022-08-24T00:30:39;0.10;;;0.10;;
19217;SDS011;9743;52.550;13.264;2022-08-24T00:33:07;0.88;;;0.60;;
19217;SDS011;9743;52.550;13.264;2022-08-24T00:35:34;0.75;;;0.52;;
19217;SDS011;9743;52.550;13.264;2022-08-24T00:38:01;0.30;;;0.30;;
19217;SDS011;9743;52.550;13.264;2022-08-24T00:40:29;0.75;;;0.75;;
19217;SDS011;9743;52.550;13.264;2022-08-24T00:42:59;0.82;;;0.47;;
19217;SDS011;9743;52.550;13.264;2022-08-24T00:45:28;0.60;;;0.52;;
19217;SDS011;9743;52.550;13.264;2022-08-24T00:47:58;0.10;;;0.10;;
19217;SDS011;9743;52.550;13.264;2022-08-24T00:50:39;0.35;;;0.30;;
19217;SDS011;9743;52.550;13.264;2022-08-24T00:53:09;0.13;;;0.13;;
19217;SDS011;9743;52.550;13.264;2022-08-24T00:55:41;0.30;;;0.30;;
19217;SDS011;9743;52.550;13.264;2022-08-24T00:58:16;1.02;;;0.60;;
19217;SDS011;9743;52.550;13.264;2022-08-24T01:00:46;1.65;;;0.90;;
19217;SDS011;9743;52.550;13.264;2022-08-24T01:03:18;0.17;;;0.17;;
19217;SDS011;9743;52.550;13.264;2022-08-24T01:05:46;1.40;;;0.65;;
19217;SDS011;9743;52.550;13.264;2022-08-24T01:08:13;0.30;;;0.30;;
19217;SDS011;9743;52.550;13.264;2022-08-24T01:10:42;0.40;;;0.40;;
19217;SDS011;9743;52.550;13.264;2022-08-24T01:13:14;1.45;;;0.73;;
19217;SDS011;9743;52.550;13.264;2022-08-24T01:15:41;2.65;;;1.10;;
19217;SDS011;9743;52.550;13.264;2022-08-24T01:18:12;0.40;;;0.40;;
19217;SDS011;9743;52.550;13.264;2022-08-24T01:21:11;0.30;;;0.30;;
19217;SDS011;9743;52.550;13.264;2022-08-24T01:23:43;1.88;;;0.47;;
19217;SDS011;9743;52.550;13.264;2022-08-24T01:26:14;1.55;;;0.95;;
19217;SDS011;9743;52.550;13.264;2022-08-24T01:28:44;0.75;;;0.73;;
19217;SDS011;9743;52.550;13.264;2022-08-24T01:31:14;0.20;;;0.20;;
19217;SDS011;9743;52.550;13.264;2022-08-24T01:33:46;0.80;;;0.47;;
19217;SDS011;9743;52.550;13.264;2022-08-24T01:36:17;0.93;;;0.52;;
19217;SDS011;9743;52.550;13.264;2022-08-24T01:38:51;0.20;;;0.20;;
19217;SDS011;9743;52.550;13.264;2022-08-24T01:41:19;0.57;;;0.50;;
19217;SDS011;9743;52.550;13.264;2022-08-24T01:43:47;0.50;;;0.45;;
19217;SDS011;9743;52.550;13.264;2022-08-24T01:46:16;0.57;;;0.43;;
19217;SDS011;9743;52.550;13.264;2022-08-24T01:48:43;2.30;;;0.70;;
19217;SDS011;9743;52.550;13.264;2022-08-24T01:51:10;1.65;;;0.52;;
19217;SDS011;9743;52.550;13.264;2022-08-24T01:53:36;0.28;;;0.28;;
19217;SDS011;9743;52.550;13.264;2022-08-24T01:56:11;0.17;;;0.17;;
19217;SDS011;9743;52.550;13.264;2022-08-24T01:58:41;0.20;;;0.20;;
19217;SDS011;9743;52.550;13.264;2022-08-24T02:01:09;0.30;;;0.20;;
19217;SDS011;9743;52.550;13.264;2022-08-24T02:03:36;0.20;;;0.20;;
19217;SDS011;9743;52.550;13.264;2022-08-24T02:06:03;1.48;;;0.63;;
19217;SDS011;9743;52.550;13.264;2022-08-24T02:08:30;0.20;;;0.20;;
19217;SDS011;9743;52.550;13.264;2022-08-24T02:11:00;0.30;;;0.30;;
19217;SDS011;9743;52.550;13.264;2022-08-24T02:13:29;8.30;;;1.05;;
19217;SDS011;9743;52.550;13.264;2022-08-24T02:15:57;0.20;;;0.20;;
19217;SDS011;9743;52.550;13.264;2022-08-24T02:18:24;0.20;;;0.20;;
19217;SDS011;9743;52.550;13.264;2022-08-24T02:20:51;2.10;;;0.70;;
19217;SDS011;9743;52.550;13.264;2022-08-24T02:23:18;0.25;;;0.25;;
19217;SDS011;9743;52.550;13.264;2022-08-24T02:25:46;0.47;;;0.47;;
19217;SDS011;9743;52.550;13.264;2022-08-24T02:28:13;0.90;;;0.70;;
19217;SDS011;9743;52.550;13.264;2022-08-24T02:30:41;0.20;;;0.20;;
19217;SDS011;9743;52.550;13.264;2022-08-24T02:33:08;0.38;;;0.38;;
19217;SDS011;9743;52.550;13.264;2022-08-24T02:35:38;1.25;;;0.90;;
19217;SDS011;9743;52.550;13.264;2022-08-24T02:38:06;1.55;;;0.82;;
19217;SDS011;9743;52.550;13.264;2022-08-24T02:40:34;1.13;;;0.85;;
19217;SDS011;9743;52.550;13.264;2022-08-24T02:43:02;0.50;;;0.50;;
19217;SDS011;9743;52.550;13.264;2022-08-24T02:45:30;0.45;;;0.43;;
19217;SDS011;9743;52.550;13.264;2022-08-24T02:47:58;0.63;;;0.40;;
19217;SDS011;9743;52.550;13.264;2022-08-24T02:50:25;4.65;;;1.10;;
19217;SDS011;9743;52.550;13.264;2022-08-24T02:52:52;2.03;;;1.10;;
19217;SDS011;9743;52.550;13.264;2022-08-24T02:55:19;1.00;;;0.73;;
19217;SDS011;9743;52.550;13.264;2022-08-24T02:57:46;0.38;;;0.38;;
19217;SDS011;9743;52.550;13.264;2022-08-24T03:00:15;1.13;;;1.02;;
19217;SDS011;9743;52.550;13.264;2022-08-24T03:02:45;0.28;;;0.28;;
19217;SDS011;9743;52.550;13.264;2022-08-24T03:05:13;0.38;;;0.38;;
19217;SDS011;9743;52.550;13.264;2022-08-24T03:07:41;0.45;;;0.45;;
19217;SDS011;9743;52.550;13.264;2022-08-24T03:10:08;5.10;;;1.27;;
19217;SDS011;9743;52.550;13.264;2022-08-24T03:12:35;1.45;;;0.88;;
19217;SDS011;9743;52.550;13.264;2022-08-24T03:15:03;0.75;;;0.55;;
19217;SDS011;9743;52.550;13.264;2022-08-24T03:17:31;0.75;;;0.57;;
19217;SDS011;9743;52.550;13.264;2022-08-24T03:19:59;1.15;;;0.40;;
19217;SDS011;9743;52.550;13.264;2022-08-24T03:22:27;5.13;;;0.85;;
19217;SDS011;9743;52.550;13.264;2022-08-24T03:24:54;0.47;;;0.47;;
19217;SDS011;9743;52.550;13.264;2022-08-24T03:27:21;0.60;;;0.60;;
19217;SDS011;9743;52.550;13.264;2022-08-24T03:29:47;0.77;;;0.75;;
19217;SDS011;9743;52.550;13.264;2022-08-24T03:32:14;0.95;;;0.93;;
19217;SDS011;9743;52.550;13.264;2022-08-24T03:34:41;0.88;;;0.73;;
19217;SDS011;9743;52.550;13.264;2022-08-24T03:37:09;0.38;;;0.38;;
19217;SDS011;9743;52.550;13.264;2022-08-24T03:39:37;0.75;;;0.75;;
19217;SDS011;9743;52.550;13.264;2022-08-24T03:42:04;0.40;;;0.40;;
19217;SDS011;9743;52.550;13.264;2022-08-24T03:44:31;0.30;;;0.30;;
19217;SDS011;9743;52.550;13.264;2022-08-24T03:46:59;0.68;;;0.68;;
19217;SDS011;9743;52.550;13.264;2022-08-24T03:49:26;2.45;;;0.63;;
19217;SDS011;9743;52.550;13.264;2022-08-24T03:51:52;0.40;;;0.40;;
19217;SDS011;9743;52.550;13.264;2022-08-24T03:54:19;0.95;;;0.95;;
19217;SDS011;9743;52.550;13.264;2022-08-24T03:56:47;1.23;;;0.82;;
19217;SDS011;9743;52.550;13.264;2022-08-24T03:59:14;0.55;;;0.55;;
19217;SDS011;9743;52.550;13.264;2022-08-24T04:01:41;0.38;;;0.35;;
19217;SDS011;9743;52.550;13.264;2022-08-24T04:04:08;0.38;;;0.38;;
19217;SDS011;9743;52.550;13.264;2022-08-24T04:06:36;1.20;;;0.57;;
19217;SDS011;9743;52.550;13.264;2022-08-24T04:09:04;1.80;;;0.93;;
19217;SDS011;9743;52.550;13.264;2022-08-24T04:11:32;0.95;;;0.60;;
19217;SDS011;9743;52.550;13.264;2022-08-24T04:14:00;1.23;;;0.98;;
19217;SDS011;9743;52.550;13.264;2022-08-24T04:16:27;1.17;;;0.80;;
19217;SDS011;9743;52.550;13.264;2022-08-24T04:18:55;3.30;;;1.38;;
19217;SDS011;9743;52.550;13.264;2022-08-24T04:21:22;0.50;;;0.50;;
19217;SDS011;9743;52.550;13.264;2022-08-24T04:23:51;3.03;;;0.93;;
19217;SDS011;9743;52.550;13.264;2022-08-24T04:26:19;0.68;;;0.52;;
19217;SDS011;9743;52.550;13.264;2022-08-24T04:28:47;0.80;;;0.73;;
19217;SDS011;9743;52.550;13.264;2022-08-24T04:31:15;2.55;;;1.13;;
19217;SDS011;9743;52.550;13.264;2022-08-24T04:33:45;0.30;;;0.30;;
19217;SDS011;9743;52.550;13.264;2022-08-24T04:36:14;0.93;;;0.73;;
19217;SDS011;9743;52.550;13.264;2022-08-24T04:38:42;0.30;;;0.30;;
19217;SDS011;9743;52.550;13.264;2022-08-24T04:41:13;0.55;;;0.55;;
19217;SDS011;9743;52.550;13.264;2022-08-24T04:43:44;2.47;;;1.02;;
19217;SDS011;9743;52.550;13.264;2022-08-24T04:46:12;1.20;;;0.88;;
19217;SDS011;9743;52.550;13.264;2022-08-24T04:48:42;0.52;;;0.50;;
19217;SDS011;9743;52.550;13.264;2022-08-24T04:51:12;0.40;;;0.40;;
19217;SDS011;9743;52.550;13.264;2022-08-24T04:53:42;0.95;;;0.73;;
19217;SDS011;9743;52.550;13.264;2022-08-24T04:56:37;0.40;;;0.40;;
19217;SDS011;9743;52.550;13.264;2022-08-24T04:59:04;0.70;;;0.52;;
19217;SDS011;9743;52.550;13.264;2022-08-24T05:01:31;0.70;;;0.68;;
19217;SDS011;9743;52.550;13.264;2022-08-24T05:04:00;0.93;;;0.73;;
19217;SDS011;9743;52.550;13.264;2022-08-24T05:06:28;0.50;;;0.50;;
19217;SDS011;9743;52.550;13.264;2022-08-24T05:08:56;16.02;;;1.13;;
19217;SDS011;9743;52.550;13.264;2022-08-24T05:11:24;1.98;;;1.10;;
19217;SDS011;9743;52.550;13.264;2022-08-24T05:13:52;0.98;;;0.88;;
19217;SDS011;9743;52.550;13.264;2022-08-24T05:16:20;1.33;;;0.95;;
19217;SDS011;9743;52.550;13.264;2022-08-24T05:18:48;0.57;;;0.57;;
19217;SDS011;9743;52.550;13.264;2022-08-24T05:21:17;1.38;;;1.00;;
19217;SDS011;9743;52.550;13.264;2022-08-24T05:23:46;1.08;;;0.90;;
19217;SDS011;9743;52.550;13.264;2022-08-24T05:26:13;1.33;;;0.82;;
19217;SDS011;9743;52.550;13.264;2022-08-24T05:28:42;2.88;;;2.15;;
19217;SDS011;9743;52.550;13.264;2022-08-24T05:31:18;1.60;;;1.38;;
19217;SDS011;9743;52.550;13.264;2022-08-24T05:33:48;8.77;;;3.28;;
19217;SDS011;9743;52.550;13.264;2022-08-24T05:36:30;1.38;;;1.25;;
19217;SDS011;9743;52.550;13.264;2022-08-24T05:38:59;3.10;;;1.35;;
19217;SDS011;9743;52.550;13.264;2022-08-24T05:41:27;3.20;;;2.40;;
19217;SDS011;9743;52.550;13.264;2022-08-24T05:43:55;2.03;;;1.77;;
19217;SDS011;9743;52.550;13.264;2022-08-24T05:46:22;2.22;;;1.60;;
19217;SDS011;9743;52.550;13.264;2022-08-24T05:48:48;1.80;;;1.23;;
19217;SDS011;9743;52.550;13.264;2022-08-24T05:51:15;1.17;;;1.05;;
19217;SDS011;9743;52.550;13.264;2022-08-24T05:53:44;4.53;;;1.45;;
19217;SDS011;9743;52.550;13.264;2022-08-24T05:56:11;1.63;;;1.52;;
19217;SDS011;9743;52.550;13.264;2022-08-24T05:58:40;1.23;;;1.13;;
19217;SDS011;9743;52.550;13.264;2022-08-24T06:01:08;2.22;;;1.33;;
19217;SDS011;9743;52.550;13.264;2022-08-24T06:03:37;1.50;;;1.27;;
19217;SDS011;9743;52.550;13.264;2022-08-24T06:06:05;2.90;;;1.42;;
19217;SDS011;9743;52.550;13.264;2022-08-24T06:08:33;1.38;;;0.95;;
19217;SDS011;9743;52.550;13.264;2022-08-24T06:11:02;1.45;;;0.93;;
19217;SDS011;9743;52.550;13.264;2022-08-24T06:13:29;1.55;;;1.33;;
19217;SDS011;9743;52.550;13.264;2022-08-24T06:16:03;2.65;;;1.75;;
19217;SDS011;9743;52.550;13.264;2022-08-24T06:18:32;2.75;;;1.25;;
19217;SDS011;9743;52.550;13.264;2022-08-24T06:21:02;0.93;;;0.82;;
19217;SDS011;9743;52.550;13.264;2022-08-24T06:23:30;1.33;;;0.85;;
19217;SDS011;9743;52.550;13.264;2022-08-24T06:25:57;1.52;;;1.42;;
19217;SDS011;9743;52.550;13.264;2022-08-24T06:28:43;0.95;;;0.88;;
19217;SDS011;9743;52.550;13.264;2022-08-24T06:31:10;1.58;;;1.15;;
19217;SDS011;9743;52.550;13.264;2022-08-24T06:33:37;5.15;;;2.28;;
19217;SDS011;9743;52.550;13.264;2022-08-24T06:36:05;1.83;;;1.65;;
19217;SDS011;9743;52.550;13.264;2022-08-24T06:38:32;2.00;;;1.73;;
19217;SDS011;9743;52.550;13.264;2022-08-24T06:40:59;1.33;;;1.17;;
19217;SDS011;9743;52.550;13.264;2022-08-24T06:43:25;2.33;;;1.52;;
19217;SDS011;9743;52.550;13.264;2022-08-24T06:45:54;1.38;;;1.10;;
19217;SDS011;9743;52.550;13.264;2022-08-24T06:48:22;5.40;;;2.10;;
19217;SDS011;9743;52.550;13.264;2022-08-24T06:50:50;3.63;;;2.20;;
19217;SDS011;9743;52.550;13.264;2022-08-24T06:53:17;2.00;;;1.65;;
19217;SDS011;9743;52.550;13.264;2022-08-24T06:55:44;6.47;;;2.72;;
19217;SDS011;9743;52.550;13.264;2022-08-24T06:58:13;2.03;;;1.33;;
19217;SDS011;9743;52.550;13.264;2022-08-24T07:00:40;2.22;;;1.83;;
19217;SDS011;9743;52.550;13.264;2022-08-24T07:03:09;2.05;;;1.88;;
19217;SDS011;9743;52.550;13.264;2022-08-24T07:05:35;2.28;;;1.70;;
19217;SDS011;9743;52.550;13.264;2022-08-24T07:08:04;6.55;;;1.98;;
19217;SDS011;9743;52.550;13.264;2022-08-24T07:10:31;1.98;;;1.55;;
19217;SDS011;9743;52.550;13.264;2022-08-24T07:12:59;3.78;;;1.48;;
19217;SDS011;9743;52.550;13.264;2022-08-24T07:15:26;2.83;;;1.05;;
19217;SDS011;9743;52.550;13.264;2022-08-24T07:17:53;2.25;;;1.83;;
19217;SDS011;9743;52.550;13.264;2022-08-24T07:20:21;6.68;;;2.03;;
19217;SDS011;9743;52.550;13.264;2022-08-24T07:22:48;3.92;;;2.83;;
19217;SDS011;9743;52.550;13.264;2022-08-24T07:25:18;9.15;;;2.10;;
19217;SDS011;9743;52.550;13.264;2022-08-24T07:27:45;1.10;;;1.02;;
19217;SDS011;9743;52.550;13.264;2022-08-24T07:30:12;4.22;;;2.25;;
19217;SDS011;9743;52.550;13.264;2022-08-24T07:32:40;1.23;;;1.13;;
19217;SDS011;9743;52.550;13.264;2022-08-24T07:35:07;2.78;;;1.77;;
19217;SDS011;9743;52.550;13.264;2022-08-24T07:37:35;1.90;;;1.70;;
19217;SDS011;9743;52.550;13.264;2022-08-24T07:40:02;8.10;;;2.50;;
19217;SDS011;9743;52.550;13.264;2022-08-24T07:42:30;8.77;;;4.50;;
19217;SDS011;9743;52.550;13.264;2022-08-24T07:44:56;6.15;;;1.90;;
19217;SDS011;9743;52.550;13.264;2022-08-24T07:47:23;2.05;;;1.58;;
19217;SDS011;9743;52.550;13.264;2022-08-24T07:49:50;3.50;;;1.90;;
19217;SDS011;9743;52.550;13.264;2022-08-24T07:52:17;1.90;;;1.70;;
19217;SDS011;9743;52.550;13.264;2022-08-24T07:54:45;2.15;;;1.48;;
19217;SDS011;9743;52.550;13.264;2022-08-24T07:57:12;2.40;;;2.00;;
19217;SDS011;9743;52.550;13.264;2022-08-24T07:59:39;1.65;;;1.48;;
19217;SDS011;9743;52.550;13.264;2022-08-24T08:02:06;6.00;;;2.25;;
19217;SDS011;9743;52.550;13.264;2022-08-24T08:04:35;5.30;;;2.53;;
19217;SDS011;9743;52.550;13.264;2022-08-24T08:07:02;16.33;;;4.35;;
19217;SDS011;9743;52.550;13.264;2022-08-24T08:09:31;2.63;;;2.13;;
19217;SDS011;9743;52.550;13.264;2022-08-24T08:11:59;4.40;;;1.80;;
19217;SDS011;9743;52.550;13.264;2022-08-24T08:14:26;1.50;;;1.40;;
19217;SDS011;9743;52.550;13.264;2022-08-24T08:16:53;3.78;;;2.17;;
19217;SDS011;9743;52.550;13.264;2022-08-24T08:19:20;1.65;;;1.25;;
19217;SDS011;9743;52.550;13.264;2022-08-24T08:21:47;4.85;;;1.55;;
19217;SDS011;9743;52.550;13.264;2022-08-24T08:24:33;3.08;;;1.95;;
19217;SDS011;9743;52.550;13.264;2022-08-24T08:27:04;4.70;;;1.67;;
19217;SDS011;9743;52.550;13.264;2022-08-24T08:29:31;3.75;;;1.52;;
19217;SDS011;9743;52.550;13.264;2022-08-24T08:31:59;1.85;;;1.35;;
19217;SDS011;9743;52.550;13.264;2022-08-24T08:34:28;1.58;;;1.45;;
19217;SDS011;9743;52.550;13.264;2022-08-24T08:36:55;3.88;;;2.08;;
19217;SDS011;9743;52.550;13.264;2022-08-24T08:39:22;5.35;;;2.00;;
19217;SDS011;9743;52.550;13.264;2022-08-24T08:44:58;2.33;;;1.17;;
19217;SDS011;9743;52.550;13.264;2022-08-24T08:50:36;2.00;;;1.80;;
19217;SDS011;9743;52.550;13.264;2022-08-24T08:53:28;11.95;;;1.83;;
19217;SDS011;9743;52.550;13.264;2022-08-24T08:56:13;3.83;;;2.03;;
19217;SDS011;9743;52.550;13.264;2022-08-24T08:58:52;2.78;;;1.63;;
19217;SDS011;9743;52.550;13.264;2022-08-24T09:01:35;4.57;;;2.50;;
19217;SDS011;9743;52.550;13.264;2022-08-24T09:04:13;12.18;;;1.85;;
19217;SDS011;9743;52.550;13.264;2022-08-24T09:07:02;6.07;;;1.45;;
19217;SDS011;9743;52.550;13.264;2022-08-24T09:09:55;1.95;;;1.23;;
19217;SDS011;9743;52.550;13.264;2022-08-24T09:12:49;3.53;;;2.33;;
19217;SDS011;9743;52.550;13.264;2022-08-24T09:15:32;6.70;;;2.67;;
19217;SDS011;9743;52.550;13.264;2022-08-24T09:18:11;7.18;;;1.80;;
19217;SDS011;9743;52.550;13.264;2022-08-24T09:21:02;1.75;;;1.40;;
19217;SDS011;9743;52.550;13.264;2022-08-24T09:23:42;3.63;;;1.27;;
19217;SDS011;9743;52.550;13.264;2022-08-24T09:26:23;5.88;;;2.50;;
19217;SDS011;9743;52.550;13.264;2022-08-24T09:28:54;2.03;;;1.77;;
19217;SDS011;9743;52.550;13.264;2022-08-24T09:34:32;1.55;;;1.05;;
19217;SDS011;9743;52.550;13.264;2022-08-24T09:37:03;6.03;;;2.55;;
19217;SDS011;9743;52.550;13.264;2022-08-24T09:39:54;12.68;;;1.88;;
19217;SDS011;9743;52.550;13.264;2022-08-24T09:45:36;3.63;;;2.10;;
19217;SDS011;9743;52.550;13.264;2022-08-24T09:48:40;2.03;;;1.58;;
19217;SDS011;9743;52.550;13.264;2022-08-24T09:51:40;9.48;;;2.60;;
19217;SDS011;9743;52.550;13.264;2022-08-24T09:57:37;3.33;;;1.30;;
19217;SDS011;9743;52.550;13.264;2022-08-24T10:00:26;4.15;;;1.27;;
19217;SDS011;9743;52.550;13.264;2022-08-24T10:03:07;10.02;;;2.33;;
19217;SDS011;9743;52.550;13.264;2022-08-24T10:05:51;9.60;;;2.10;;
19217;SDS011;9743;52.550;13.264;2022-08-24T10:08:30;6.80;;;2.40;;
19217;SDS011;9743;52.550;13.264;2022-08-24T10:11:06;4.00;;;2.65;;
19217;SDS011;9743;52.550;13.264;2022-08-24T10:13:42;5.85;;;1.67;;
19217;SDS011;9743;52.550;13.264;2022-08-24T10:16:22;1.33;;;1.23;;
19217;SDS011;9743;52.550;13.264;2022-08-24T10:19:01;4.82;;;1.85;;
19217;SDS011;9743;52.550;13.264;2022-08-24T10:21:43;4.78;;;2.22;;
19217;SDS011;9743;52.550;13.264;2022-08-24T10:24:24;2.83;;;1.63;;
19217;SDS011;9743;52.550;13.264;2022-08-24T10:27:05;5.22;;;1.55;;
19217;SDS011;9743;52.550;13.264;2022-08-24T10:29:52;5.45;;;2.50;;
19217;SDS011;9743;52.550;13.264;2022-08-24T10:32:39;3.55;;;2.42;;
19217;SDS011;9743;52.550;13.264;2022-08-24T10:35:14;4.15;;;2.10;;
19217;SDS011;9743;52.550;13.264;2022-08-24T10:41:25;3.85;;;2.15;;
19217;SDS011;9743;52.550;13.264;2022-08-24T10:44:45;3.08;;;1.90;;
19217;SDS011;9743;52.550;13.264;2022-08-24T10:47:18;11.82;;;1.30;;
19217;SDS011;9743;52.550;13.264;2022-08-24T10:53:01;2.90;;;1.83;;
19217;SDS011;9743;52.550;13.264;2022-08-24T10:55:56;5.30;;;1.35;;
19217;SDS011;9743;52.550;13.264;2022-08-24T10:58:41;3.13;;;1.58;;
19217;SDS011;9743;52.550;13.264;2022-08-24T11:01:15;5.28;;;1.38;;
19217;SDS011;9743;52.550;13.264;2022-08-24T11:03:53;1.63;;;1.52;;
19217;SDS011;9743;52.550;13.264;2022-08-24T11:06:26;3.35;;;2.22;;
19217;SDS011;9743;52.550;13.264;2022-08-24T11:08:57;3.28;;;1.92;;
19217;SDS011;9743;52.550;13.264;2022-08-24T11:11:31;2.22;;;0.90;;
19217;SDS011;9743;52.550;13.264;2022-08-24T11:14:01;3.35;;;1.38;;
19217;SDS011;9743;52.550;13.264;2022-08-24T11:16:32;3.35;;;1.88;;
19217;SDS011;9743;52.550;13.264;2022-08-24T11:19:03;4.00;;;1.58;;
19217;SDS011;9743;52.550;13.264;2022-08-24T11:21:38;2.38;;;1.83;;
19217;SDS011;9743;52.550;13.264;2022-08-24T11:24:09;1.13;;;1.00;;
19217;SDS011;9743;52.550;13.264;2022-08-24T11:26:51;2.45;;;1.77;;
19217;SDS011;9743;52.550;13.264;2022-08-24T11:29:22;1.45;;;0.88;;
19217;SDS011;9743;52.550;13.264;2022-08-24T11:31:55;2.97;;;1.88;;
19217;SDS011;9743;52.550;13.264;2022-08-24T11:34:30;1.17;;;1.05;;
19217;SDS011;9743;52.550;13.264;2022-08-24T11:37:01;2.90;;;1.08;;
19217;SDS011;9743;52.550;13.264;2022-08-24T11:39:29;2.03;;;1.40;;
19217;SDS011;9743;52.550;13.264;2022-08-24T11:42:04;5.38;;;1.33;;
19217;SDS011;9743;52.550;13.264;2022-08-24T11:44:39;1.90;;;1.02;;
19217;SDS011;9743;52.550;13.264;2022-08-24T11:47:26;4.10;;;1.90;;
19217;SDS011;9743;52.550;13.264;2022-08-24T11:50:17;6.10;;;1.75;;
19217;SDS011;9743;52.550;13.264;2022-08-24T11:52:55;1.00;;;0.85;;
19217;SDS011;9743;52.550;13.264;2022-08-24T11:55:29;8.75;;;1.83;;
19217;SDS011;9743;52.550;13.264;2022-08-24T11:58:02;2.83;;;1.00;;
19217;SDS011;9743;52.550;13.264;2022-08-24T12:00:38;3.83;;;1.33;;
19217;SDS011;9743;52.550;13.264;2022-08-24T12:03:18;4.78;;;0.55;;
19217;SDS011;9743;52.550;13.264;2022-08-24T12:05:58;1.50;;;1.02;;
19217;SDS011;9743;52.550;13.264;2022-08-24T12:08:32;3.92;;;1.77;;
19217;SDS011;9743;52.550;13.264;2022-08-24T12:11:08;1.40;;;0.80;;
19217;SDS011;9743;52.550;13.264;2022-08-24T12:13:44;2.97;;;1.88;;
19217;SDS011;9743;52.550;13.264;2022-08-24T12:16:18;1.70;;;1.42;;
19217;SDS011;9743;52.550;13.264;2022-08-24T12:18:50;1.60;;;1.15;;
19217;SDS011;9743;52.550;13.264;2022-08-24T12:21:21;0.98;;;0.82;;
19217;SDS011;9743;52.550;13.264;2022-08-24T12:23:52;2.17;;;1.38;;
19217;SDS011;9743;52.550;13.264;2022-08-24T12:26:24;6.30;;;2.08;;
19217;SDS011;9743;52.550;13.264;2022-08-24T12:28:58;4.85;;;0.60;;
19217;SDS011;9743;52.550;13.264;2022-08-24T12:31:33;3.63;;;1.60;;
19217;SDS011;9743;52.550;13.264;2022-08-24T12:34:06;2.78;;;1.50;;
19217;SDS011;9743;52.550;13.264;2022-08-24T12:36:40;2.10;;;1.50;;
19217;SDS011;9743;52.550;13.264;2022-08-24T12:39:17;4.30;;;1.60;;
19217;SDS011;9743;52.550;13.264;2022-08-24T12:41:53;3.55;;;1.05;;
19217;SDS011;9743;52.550;13.264;2022-08-24T12:44:30;2.60;;;1.20;;
19217;SDS011;9743;52.550;13.264;2022-08-24T12:47:03;1.85;;;1.23;;
19217;SDS011;9743;52.550;13.264;2022-08-24T12:49:32;2.33;;;1.08;;
19217;SDS011;9743;52.550;13.264;2022-08-24T12:52:22;0.98;;;0.70;;
19217;SDS011;9743;52.550;13.264;2022-08-24T12:55:16;0.80;;;0.80;;
19217;SDS011;9743;52.550;13.264;2022-08-24T12:58:04;1.05;;;0.80;;
19217;SDS011;9743;52.550;13.264;2022-08-24T13:00:35;0.70;;;0.70;;
19217;SDS011;9743;52.550;13.264;2022-08-24T13:03:25;2.05;;;0.88;;
19217;SDS011;9743;52.550;13.264;2022-08-24T13:05:59;2.75;;;1.20;;
19217;SDS011;9743;52.550;13.264;2022-08-24T13:08:33;4.82;;;1.45;;
19217;SDS011;9743;52.550;13.264;2022-08-24T13:11:04;2.10;;;1.10;;
19217;SDS011;9743;52.550;13.264;2022-08-24T13:13:40;6.05;;;1.65;;
19217;SDS011;9743;52.550;13.264;2022-08-24T13:16:11;1.40;;;0.65;;
19217;SDS011;9743;52.550;13.264;2022-08-24T13:19:16;1.60;;;0.73;;
19217;SDS011;9743;52.550;13.264;2022-08-24T13:21:57;3.25;;;1.73;;
19217;SDS011;9743;52.550;13.264;2022-08-24T13:24:45;2.17;;;0.73;;
19217;SDS011;9743;52.550;13.264;2022-08-24T13:30:30;0.85;;;0.65;;
19217;SDS011;9743;52.550;13.264;2022-08-24T13:33:25;1.90;;;1.02;;
19217;SDS011;9743;52.550;13.264;2022-08-24T13:36:02;4.75;;;0.95;;
19217;SDS011;9743;52.550;13.264;2022-08-24T13:41:46;2.22;;;1.42;;
19217;SDS011;9743;52.550;13.264;2022-08-24T13:44:21;1.27;;;0.70;;
19217;SDS011;9743;52.550;13.264;2022-08-24T13:46:55;1.00;;;0.75;;
19217;SDS011;9743;52.550;13.264;2022-08-24T13:52:36;2.63;;;1.08;;
19217;SDS011;9743;52.550;13.264;2022-08-24T13:55:12;1.33;;;0.82;;
19217;SDS011;9743;52.550;13.264;2022-08-24T13:58:02;4.22;;;1.15;;
19217;SDS011;9743;52.550;13.264;2022-08-24T14:00:39;3.58;;;1.23;;
19217;SDS011;9743;52.550;13.264;2022-08-24T14:03:20;17.02;;;1.55;;
19217;SDS011;9743;52.550;13.264;2022-08-24T14:06:17;0.52;;;0.52;;
19217;SDS011;9743;52.550;13.264;2022-08-24T14:08:53;0.52;;;0.52;;
19217;SDS011;9743;52.550;13.264;2022-08-24T14:11:33;1.17;;;0.85;;
19217;SDS011;9743;52.550;13.264;2022-08-24T14:14:09;12.88;;;1.85;;
19217;SDS011;9743;52.550;13.264;2022-08-24T14:16:50;2.25;;;1.45;;
19217;SDS011;9743;52.550;13.264;2022-08-24T14:19:43;8.38;;;1.80;;
19217;SDS011;9743;52.550;13.264;2022-08-24T14:22:23;2.60;;;1.60;;
19217;SDS011;9743;52.550;13.264;2022-08-24T14:25:02;2.10;;;1.58;;
19217;SDS011;9743;52.550;13.264;2022-08-24T14:27:41;1.95;;;1.48;;
19217;SDS011;9743;52.550;13.264;2022-08-24T14:33:08;1.50;;;1.40;;
19217;SDS011;9743;52.550;13.264;2022-08-24T14:35:43;3.88;;;1.73;;
19217;SDS011;9743;52.550;13.264;2022-08-24T14:38:27;1.33;;;0.82;;
19217;SDS011;9743;52.550;13.264;2022-08-24T14:41:13;2.85;;;1.67;;
19217;SDS011;9743;52.550;13.264;2022-08-24T14:43:52;4.15;;;1.50;;
19217;SDS011;9743;52.550;13.264;2022-08-24T14:46:49;1.13;;;0.85;;
19217;SDS011;9743;52.550;13.264;2022-08-24T14:49:25;1.65;;;1.02;;
19217;SDS011;9743;52.550;13.264;2022-08-24T14:52:10;1.60;;;1.20;;
19217;SDS011;9743;52.550;13.264;2022-08-24T14:54:49;1.98;;;1.65;;
19217;SDS011;9743;52.550;13.264;2022-08-24T14:57:31;3.15;;;0.95;;
19217;SDS011;9743;52.550;13.264;2022-08-24T15:00:08;1.52;;;1.23;;
19217;SDS011;9743;52.550;13.264;2022-08-24T15:05:40;5.35;;;1.13;;
19217;SDS011;9743;52.550;13.264;2022-08-24T15:08:11;0.50;;;0.50;;
19217;SDS011;9743;52.550;13.264;2022-08-24T15:11:00;4.43;;;2.10;;
19217;SDS011;9743;52.550;13.264;2022-08-24T15:13:35;3.65;;;0.98;;
19217;SDS011;9743;52.550;13.264;2022-08-24T15:16:08;1.27;;;1.17;;
19217;SDS011;9743;52.550;13.264;2022-08-24T15:18:39;1.40;;;1.23;;
19217;SDS011;9743;52.550;13.264;2022-08-24T15:21:11;1.10;;;0.82;;
19217;SDS011;9743;52.550;13.264;2022-08-24T15:23:54;1.08;;;0.95;;
19217;SDS011;9743;52.550;13.264;2022-08-24T15:26:35;2.17;;;1.42;;
19217;SDS011;9743;52.550;13.264;2022-08-24T15:29:13;0.70;;;0.70;;
19217;SDS011;9743;52.550;13.264;2022-08-24T15:31:41;3.92;;;0.90;;
19217;SDS011;9743;52.550;13.264;2022-08-24T15:34:30;3.55;;;1.58;;
19217;SDS011;9743;52.550;13.264;2022-08-24T15:37:00;25.83;;;1.70;;
19217;SDS011;9743;52.550;13.264;2022-08-24T15:39:28;4.70;;;1.55;;
19217;SDS011;9743;52.550;13.264;2022-08-24T15:41:56;3.72;;;1.10;;
19217;SDS011;9743;52.550;13.264;2022-08-24T15:44:24;1.17;;;0.98;;
19217;SDS011;9743;52.550;13.264;2022-08-24T15:46:58;2.85;;;1.25;;
19217;SDS011;9743;52.550;13.264;2022-08-24T15:49:30;2.75;;;1.60;;
19217;SDS011;9743;52.550;13.264;2022-08-24T15:52:04;2.38;;;1.20;;
19217;SDS011;9743;52.550;13.264;2022-08-24T15:54:34;3.63;;;1.83;;
19217;SDS011;9743;52.550;13.264;2022-08-24T15:57:07;1.48;;;0.80;;
19217;SDS011;9743;52.550;13.264;2022-08-24T15:59:48;0.82;;;0.57;;